createdAt,value
2022-12-18T00:00:07.113Z,-6.57
2022-12-18T00:02:42.946Z,-6.51
2022-12-18T00:05:10.822Z,-6.46
2022-12-18T00:07:38.796Z,-6.56
2022-12-18T00:10:08.315Z,-6.59
2022-12-18T00:12:36.061Z,-6.64
2022-12-18T00:15:05.460Z,-6.63
2022-12-18T00:17:33.275Z,-6.68
2022-12-18T00:20:02.648Z,-6.71
2022-12-18T00:22:30.336Z,-6.66
2022-12-18T00:24:58.284Z,-6.67
2022-12-18T00:27:25.987Z,-6.65
2022-12-18T00:29:53.717Z,-6.63
2022-12-18T00:32:21.527Z,-6.75
2022-12-18T00:34:49.464Z,-6.90
2022-12-18T00:37:20.476Z,-6.93
2022-12-18T00:39:52.263Z,-6.81
2022-12-18T00:42:40.156Z,-6.88
2022-12-18T00:45:12.630Z,-6.81
2022-12-18T00:47:41.367Z,-6.70
2022-12-18T00:50:10.802Z,-6.65
2022-12-18T00:52:43.531Z,-6.63
2022-12-18T00:55:12.190Z,-6.68
2022-12-18T00:57:40.052Z,-6.67
2022-12-18T01:00:12.716Z,-6.63
2022-12-18T01:02:41.556Z,-6.64
2022-12-18T01:05:11.336Z,-6.63
2022-12-18T01:07:39.249Z,-6.68
2022-12-18T01:10:13.379Z,-6.75
2022-12-18T01:12:41.610Z,-6.73
2022-12-18T01:15:13.754Z,-6.75
2022-12-18T01:17:41.825Z,-6.87
2022-12-18T01:20:11.841Z,-6.89
2022-12-18T01:22:39.899Z,-6.96
2022-12-18T01:25:10.785Z,-6.87
2022-12-18T01:27:38.556Z,-6.80
2022-12-18T01:30:08.380Z,-6.83
2022-12-18T01:32:36.152Z,-6.88
2022-12-18T01:35:04.962Z,-6.96
2022-12-18T01:37:32.821Z,-6.96
2022-12-18T01:40:00.664Z,-7.00
2022-12-18T01:42:29.835Z,-7.09
2022-12-18T01:45:07.186Z,-7.13
2022-12-18T01:47:41.568Z,-7.07
2022-12-18T01:50:14.261Z,-7.05
2022-12-18T01:52:44.743Z,-6.96
2022-12-18T01:55:15.947Z,-6.87
2022-12-18T01:57:45.960Z,-6.99
2022-12-18T02:00:18.376Z,-6.89
2022-12-18T02:02:48.210Z,-6.85
2022-12-18T02:05:28.408Z,-6.70
2022-12-18T02:08:10.611Z,-6.59
2022-12-18T02:10:50.203Z,-6.58
2022-12-18T02:13:33.285Z,-6.53
2022-12-18T02:16:17.366Z,-6.57
2022-12-18T02:18:52.157Z,-6.61
2022-12-18T02:21:35.201Z,-6.59
2022-12-18T02:24:30.453Z,-6.76
2022-12-18T02:27:05.893Z,-6.78
2022-12-18T02:29:39.815Z,-6.70
2022-12-18T02:32:15.929Z,-6.59
2022-12-18T02:34:46.974Z,-6.40
2022-12-18T02:37:20.807Z,-6.31
2022-12-18T02:39:54.033Z,-6.34
2022-12-18T02:42:25.339Z,-6.42
2022-12-18T02:44:56.724Z,-6.39
2022-12-18T02:47:32.234Z,-6.36
2022-12-18T02:50:14.427Z,-6.35
2022-12-18T02:53:02.165Z,-6.35
2022-12-18T02:55:54.425Z,-6.43
2022-12-18T02:58:41.143Z,-6.46
2022-12-18T03:01:24.282Z,-6.48
2022-12-18T03:03:58.648Z,-6.72
2022-12-18T03:06:33.027Z,-6.83
2022-12-18T03:09:15.740Z,-6.95
2022-12-18T03:12:12.280Z,-6.93
2022-12-18T03:14:46.365Z,-6.70
2022-12-18T03:17:24.303Z,-6.38
2022-12-18T03:19:57.030Z,-6.23
2022-12-18T03:22:30.207Z,-6.22
2022-12-18T03:25:03.979Z,-6.13
2022-12-18T03:27:36.945Z,-6.16
2022-12-18T03:33:09.899Z,-6.29
2022-12-18T03:35:43.693Z,-6.30
2022-12-18T03:38:13.818Z,-6.32
2022-12-18T03:40:59.314Z,-6.33
2022-12-18T03:43:43.869Z,-6.36
2022-12-18T03:46:27.752Z,-6.38
2022-12-18T03:49:09.277Z,-6.50
2022-12-18T03:51:45.866Z,-6.55
2022-12-18T03:54:14.517Z,-6.56
2022-12-18T03:56:58.077Z,-6.39
2022-12-18T03:59:29.978Z,-6.28
2022-12-18T04:02:04.045Z,-6.15
2022-12-18T04:04:35.662Z,-5.94
2022-12-18T04:07:07.251Z,-5.63
2022-12-18T04:09:42.594Z,-5.38
2022-12-18T04:12:11.259Z,-5.19
2022-12-18T04:14:39.444Z,-5.05
2022-12-18T04:17:11.207Z,-5.09
2022-12-18T04:19:39.016Z,-5.17
2022-12-18T04:22:06.869Z,-5.24
2022-12-18T04:24:41.456Z,-5.43
2022-12-18T04:27:19.991Z,-5.50
2022-12-18T04:29:50.767Z,-5.50
2022-12-18T04:32:20.839Z,-5.61
2022-12-18T04:34:49.796Z,-5.70
2022-12-18T04:37:18.621Z,-5.90
2022-12-18T04:39:47.012Z,-5.93
2022-12-18T04:42:22.346Z,-5.97
2022-12-18T04:44:50.423Z,-6.03
2022-12-18T04:47:18.219Z,-6.05
2022-12-18T04:49:47.343Z,-6.02
2022-12-18T04:52:15.453Z,-5.98
2022-12-18T04:54:43.182Z,-5.82
2022-12-18T04:57:11.035Z,-5.68
2022-12-18T04:59:38.838Z,-5.60
2022-12-18T05:02:06.831Z,-5.54
2022-12-18T05:04:34.836Z,-5.58
2022-12-18T05:07:04.213Z,-5.61
2022-12-18T05:09:31.926Z,-5.67
2022-12-18T05:11:59.627Z,-5.65
2022-12-18T05:14:28.591Z,-5.71
2022-12-18T05:17:00.645Z,-5.76
2022-12-18T05:19:28.938Z,-5.77
2022-12-18T05:21:56.711Z,-5.73
2022-12-18T05:24:25.847Z,-5.64
2022-12-18T05:26:53.864Z,-5.51
2022-12-18T05:29:21.902Z,-5.35
2022-12-18T05:31:49.722Z,-5.14
2022-12-18T05:34:17.662Z,-4.97
2022-12-18T05:36:45.460Z,-4.74
2022-12-18T05:39:13.435Z,-4.64
2022-12-18T05:41:42.816Z,-4.57
2022-12-18T05:44:11.157Z,-4.61
2022-12-18T05:46:46.357Z,-4.61
2022-12-18T05:49:14.096Z,-4.52
2022-12-18T05:51:41.762Z,-4.41
2022-12-18T05:54:10.347Z,-4.29
2022-12-18T05:56:38.090Z,-4.21
2022-12-18T05:59:07.150Z,-4.13
2022-12-18T06:01:35.020Z,-4.09
2022-12-18T06:04:02.972Z,-4.03
2022-12-18T06:06:31.146Z,-3.91
2022-12-18T06:08:59.177Z,-3.92
2022-12-18T06:11:28.050Z,-3.86
2022-12-18T06:13:58.958Z,-3.84
2022-12-18T06:16:30.240Z,-3.81
2022-12-18T06:18:59.632Z,-3.86
2022-12-18T06:21:28.860Z,-3.80
2022-12-18T06:23:56.913Z,-3.69
2022-12-18T06:26:28.257Z,-3.67
2022-12-18T06:28:56.649Z,-3.71
2022-12-18T06:31:24.800Z,-3.75
2022-12-18T06:33:54.403Z,-3.72
2022-12-18T06:36:22.659Z,-3.69
2022-12-18T06:38:50.626Z,-3.76
2022-12-18T06:41:21.751Z,-3.80
2022-12-18T06:43:49.663Z,-3.86
2022-12-18T06:46:17.638Z,-3.93
2022-12-18T06:48:49.802Z,-4.01
2022-12-18T06:51:21.263Z,-3.95
2022-12-18T06:53:49.282Z,-4.04
2022-12-18T06:56:17.294Z,-4.09
2022-12-18T06:58:45.229Z,-4.21
2022-12-18T07:01:15.168Z,-4.32
2022-12-18T07:03:44.532Z,-4.54
2022-12-18T07:06:16.860Z,-4.62
2022-12-18T07:08:47.033Z,-4.61
2022-12-18T07:11:15.934Z,-4.57
2022-12-18T07:13:44.682Z,-4.66
2022-12-18T07:16:22.324Z,-4.81
2022-12-18T07:18:52.409Z,-5.08
2022-12-18T07:21:21.490Z,-5.19
2022-12-18T07:23:50.579Z,-5.33
2022-12-18T07:26:22.465Z,-5.43
2022-12-18T07:28:51.277Z,-5.58
2022-12-18T07:31:22.504Z,-5.72
2022-12-18T07:33:51.590Z,-5.78
2022-12-18T07:36:20.080Z,-5.88
2022-12-18T07:38:50.952Z,-5.91
2022-12-18T07:41:19.672Z,-5.89
2022-12-18T07:43:47.957Z,-5.82
2022-12-18T07:46:17.325Z,-5.78
2022-12-18T07:48:49.287Z,-5.65
2022-12-18T07:51:19.535Z,-5.60
2022-12-18T07:53:48.775Z,-5.54
2022-12-18T07:56:27.842Z,-5.50
2022-12-18T07:58:56.644Z,-5.47
2022-12-18T08:01:25.251Z,-5.37
2022-12-18T08:03:53.157Z,-5.31
2022-12-18T08:06:23.294Z,-5.19
2022-12-18T08:08:54.525Z,-5.23
2022-12-18T08:11:27.114Z,-5.18
2022-12-18T08:13:55.764Z,-5.10
2022-12-18T08:16:24.192Z,-5.01
2022-12-18T08:18:53.634Z,-4.96
2022-12-18T08:21:24.787Z,-4.86
2022-12-18T08:23:54.958Z,-4.79
2022-12-18T08:26:26.664Z,-4.72
2022-12-18T08:28:56.484Z,-4.61
2022-12-18T08:31:25.967Z,-4.68
2022-12-18T08:33:55.325Z,-4.61
2022-12-18T08:36:24.884Z,-4.52
2022-12-18T08:38:54.087Z,-4.39
2022-12-18T08:41:23.973Z,-4.31
2022-12-18T08:44:10.359Z,-4.31
2022-12-18T08:46:39.665Z,-4.16
2022-12-18T08:49:09.189Z,-4.12
2022-12-18T08:51:37.844Z,-4.24
2022-12-18T08:54:07.187Z,-4.15
2022-12-18T08:56:36.520Z,-4.13
2022-12-18T08:59:05.214Z,-4.15
2022-12-18T09:01:33.177Z,-4.13
2022-12-18T09:04:02.195Z,-4.17
2022-12-18T09:06:30.170Z,-4.33
2022-12-18T09:08:58.476Z,-4.33
2022-12-18T09:11:28.798Z,-4.27
2022-12-18T09:14:00.760Z,-4.37
2022-12-18T09:16:32.610Z,-4.37
2022-12-18T09:19:02.315Z,-4.38
2022-12-18T09:21:36.768Z,-4.33
2022-12-18T09:24:08.514Z,-4.20
2022-12-18T09:26:37.884Z,-4.13
2022-12-18T09:29:10.988Z,-4.16
2022-12-18T09:31:40.025Z,-4.04
2022-12-18T09:34:08.340Z,-4.03
2022-12-18T09:36:36.314Z,-3.98
2022-12-18T09:39:08.096Z,-3.98
2022-12-18T09:41:45.274Z,-3.89
2022-12-18T09:44:26.355Z,-3.87
2022-12-18T09:47:05.742Z,-3.81
2022-12-18T09:49:41.540Z,-3.82
2022-12-18T09:52:15.870Z,-3.79
2022-12-18T09:54:51.107Z,-3.69
2022-12-18T09:57:23.418Z,-3.65
2022-12-18T09:59:59.557Z,-3.55
2022-12-18T10:02:32.357Z,-3.43
2022-12-18T10:05:07.653Z,-3.20
2022-12-18T10:07:50.839Z,-3.01
2022-12-18T10:10:32.755Z,-3.00
2022-12-18T10:13:13.515Z,-2.86
2022-12-18T10:15:59.284Z,-2.72
2022-12-18T10:18:57.663Z,-2.70
2022-12-18T10:21:34.782Z,-2.53
2022-12-18T10:24:15.935Z,-2.38
2022-12-18T10:26:45.133Z,-2.39
2022-12-18T10:29:16.668Z,-2.35
2022-12-18T10:31:45.931Z,-2.35
2022-12-18T10:34:15.145Z,-2.32
2022-12-18T10:36:44.158Z,-2.29
2022-12-18T10:39:18.778Z,-2.31
2022-12-18T10:41:47.231Z,-2.29
2022-12-18T10:44:21.054Z,-2.14
2022-12-18T10:46:56.852Z,-1.98
2022-12-18T10:49:28.957Z,-2.07
2022-12-18T10:52:13.235Z,-2.06
2022-12-18T10:54:48.718Z,-1.91
2022-12-18T10:57:37.991Z,-1.72
2022-12-18T11:00:29.776Z,-1.68
2022-12-18T11:02:59.247Z,-1.65
2022-12-18T11:05:31.730Z,-1.55
2022-12-18T11:08:01.458Z,-1.54
2022-12-18T11:10:33.717Z,-1.37
2022-12-18T11:13:18.969Z,-1.32
2022-12-18T11:15:47.515Z,-1.32
2022-12-18T11:18:25.917Z,-1.32
2022-12-18T11:20:58.964Z,-1.26
2022-12-18T11:23:28.994Z,-1.28
2022-12-18T11:26:03.246Z,-1.24
2022-12-18T11:28:39.353Z,-1.02
2022-12-18T11:31:26.931Z,-1.05
2022-12-18T11:34:28.159Z,-0.93
2022-12-18T11:36:55.593Z,-0.88
2022-12-18T11:39:37.180Z,-0.84
2022-12-18T11:42:13.743Z,-0.98
2022-12-18T11:44:52.445Z,-0.84
2022-12-18T11:47:31.545Z,-0.69
2022-12-18T11:50:04.965Z,-0.87
2022-12-18T11:52:40.434Z,-0.73
2022-12-18T11:55:16.167Z,-0.65
2022-12-18T11:57:54.614Z,-0.65
2022-12-18T12:00:24.152Z,-0.66
2022-12-18T12:03:23.209Z,-0.73
2022-12-18T12:06:09.148Z,-0.67
2022-12-18T12:08:58.432Z,-0.69
2022-12-18T12:11:40.848Z,-0.58
2022-12-18T12:14:36.038Z,-0.60
2022-12-18T12:17:15.036Z,-0.69
2022-12-18T12:19:55.908Z,-0.67
2022-12-18T12:22:36.336Z,-0.64
2022-12-18T12:25:27.049Z,-0.64
2022-12-18T12:28:14.679Z,-0.53
2022-12-18T12:30:55.244Z,-0.52
2022-12-18T12:33:42.619Z,-0.50
2022-12-18T12:36:24.962Z,-0.51
2022-12-18T12:39:00.804Z,-0.60
2022-12-18T12:41:53.981Z,-0.45
2022-12-18T12:44:30.046Z,-0.59
2022-12-18T12:47:07.994Z,-0.60
2022-12-18T12:49:40.459Z,-0.56
2022-12-18T12:52:15.889Z,-0.65
2022-12-18T12:54:47.603Z,-0.60
2022-12-18T12:57:27.500Z,-0.48
2022-12-18T13:00:07.455Z,-0.49
2022-12-18T13:02:49.099Z,-0.48
2022-12-18T13:05:35.540Z,-0.57
2022-12-18T13:08:07.867Z,-0.46
2022-12-18T13:10:38.945Z,-0.47
2022-12-18T13:13:10.986Z,-0.41
2022-12-18T13:15:41.950Z,-0.52
2022-12-18T13:18:19.033Z,-0.46
2022-12-18T13:20:55.311Z,-0.47
2022-12-18T13:23:33.776Z,-0.38
2022-12-18T13:26:35.293Z,-0.35
2022-12-18T13:29:05.771Z,-0.35
2022-12-18T13:32:01.019Z,-0.33
2022-12-18T13:34:32.235Z,-0.30
2022-12-18T13:37:42.595Z,-0.21
2022-12-18T13:40:56.212Z,-0.15
2022-12-18T13:43:32.134Z,-0.14
2022-12-18T13:46:05.147Z,-0.10
2022-12-18T13:48:38.903Z,-0.16
2022-12-18T13:51:12.061Z,-0.05
2022-12-18T13:53:47.173Z,-0.12
2022-12-18T13:56:18.261Z,-0.17
2022-12-18T13:59:04.883Z,-0.18
2022-12-18T14:01:32.681Z,-0.21
2022-12-18T14:04:12.169Z,-0.09
2022-12-18T14:06:40.536Z,-0.14
2022-12-18T14:09:19.001Z,-0.19
2022-12-18T14:11:50.907Z,-0.11
2022-12-18T14:14:21.043Z,0.04
2022-12-18T14:16:49.746Z,0.01
2022-12-18T14:19:19.437Z,-0.02
2022-12-18T14:21:50.145Z,-0.03
2022-12-18T14:24:20.787Z,0.00
2022-12-18T14:26:50.934Z,0.01
2022-12-18T14:29:25.983Z,0.06
2022-12-18T14:32:17.915Z,0.13
2022-12-18T14:34:48.603Z,0.05
2022-12-18T14:37:21.655Z,0.15
2022-12-18T14:40:08.732Z,0.15
2022-12-18T14:42:39.096Z,0.18
2022-12-18T14:45:43.066Z,0.09
2022-12-18T14:48:23.048Z,0.15
2022-12-18T14:51:01.677Z,0.25
2022-12-18T14:53:40.555Z,0.14
2022-12-18T14:56:21.782Z,0.21
2022-12-18T14:58:54.410Z,0.22
2022-12-18T15:01:28.332Z,0.24
2022-12-18T15:03:59.729Z,0.28
2022-12-18T15:06:32.750Z,0.23
2022-12-18T15:09:04.187Z,0.23
2022-12-18T15:11:45.854Z,0.27
2022-12-18T15:14:33.750Z,0.29
2022-12-18T15:17:07.468Z,0.22
2022-12-18T15:19:41.316Z,0.23
2022-12-18T15:22:24.333Z,0.36
2022-12-18T15:24:53.281Z,0.33
2022-12-18T15:27:30.588Z,0.36
2022-12-18T15:30:22.901Z,0.34
2022-12-18T15:33:25.633Z,0.41
2022-12-18T15:35:59.141Z,0.40
2022-12-18T15:38:27.198Z,0.37
2022-12-18T15:40:55.951Z,0.46
2022-12-18T15:43:35.264Z,0.50
2022-12-18T15:46:06.298Z,0.53
2022-12-18T15:48:40.935Z,0.43
2022-12-18T15:51:16.324Z,0.37
2022-12-18T15:53:45.696Z,0.43
2022-12-18T15:56:34.916Z,0.47
2022-12-18T15:59:08.257Z,0.60
2022-12-18T16:01:39.582Z,0.59
2022-12-18T16:04:13.269Z,0.62
2022-12-18T16:07:12.850Z,0.67
2022-12-18T16:09:30.176Z,0.83
2022-12-18T16:12:00.951Z,0.95
2022-12-18T16:14:31.097Z,0.95
2022-12-18T16:17:01.766Z,0.77
2022-12-18T16:19:31.285Z,0.65
2022-12-18T16:22:01.103Z,0.91
2022-12-18T16:24:32.380Z,1.01
2022-12-18T16:27:01.707Z,1.06
2022-12-18T16:29:30.205Z,1.07
2022-12-18T16:32:00.423Z,1.03
2022-12-18T16:34:35.392Z,1.10
2022-12-18T16:37:07.393Z,1.24
2022-12-18T16:39:37.339Z,1.30
2022-12-18T16:42:10.994Z,1.27
2022-12-18T16:44:39.014Z,1.22
2022-12-18T16:47:06.911Z,1.20
2022-12-18T16:49:39.183Z,1.12
2022-12-18T16:52:08.093Z,1.13
2022-12-18T16:54:36.528Z,1.17
2022-12-18T16:57:07.835Z,1.13
2022-12-18T16:59:35.921Z,1.18
2022-12-18T17:02:07.331Z,1.21
2022-12-18T17:04:36.087Z,1.18
2022-12-18T17:07:05.136Z,1.24
2022-12-18T17:09:32.899Z,1.23
2022-12-18T17:12:04.275Z,1.17
2022-12-18T17:14:34.558Z,1.15
2022-12-18T17:19:52.397Z,1.22
2022-12-18T17:22:23.229Z,1.24
2022-12-18T17:24:51.111Z,1.23
2022-12-18T17:27:18.823Z,1.24
2022-12-18T17:29:48.401Z,1.29
2022-12-18T17:32:17.162Z,1.39
2022-12-18T17:34:45.442Z,1.31
2022-12-18T17:37:13.870Z,1.29
2022-12-18T17:39:43.187Z,1.30
2022-12-18T17:42:15.339Z,1.37
2022-12-18T17:44:44.802Z,1.32
2022-12-18T17:47:13.702Z,1.27
2022-12-18T17:49:41.873Z,1.32
2022-12-18T17:52:10.184Z,1.36
2022-12-18T17:54:41.314Z,1.37
2022-12-18T17:57:12.118Z,1.30
2022-12-18T17:59:40.803Z,1.34
2022-12-18T18:02:11.230Z,1.48
2022-12-18T18:04:40.296Z,1.64
2022-12-18T18:07:08.095Z,1.69
2022-12-18T18:09:35.914Z,1.87
2022-12-18T18:12:22.776Z,1.82
2022-12-18T18:14:52.071Z,1.76
2022-12-18T18:17:20.383Z,1.73
2022-12-18T18:19:49.628Z,1.72
2022-12-18T18:22:18.867Z,1.84
2022-12-18T18:24:46.846Z,1.80
2022-12-18T18:27:15.068Z,1.84
2022-12-18T18:29:43.153Z,1.90
2022-12-18T18:32:12.618Z,1.86
2022-12-18T18:34:40.379Z,1.83
2022-12-18T18:37:11.878Z,1.90
2022-12-18T18:39:40.031Z,1.83
2022-12-18T18:42:07.966Z,2.00
2022-12-18T18:44:35.812Z,2.05
2022-12-18T18:47:06.923Z,1.83
2022-12-18T18:49:39.107Z,1.78
2022-12-18T18:52:07.485Z,1.98
2022-12-18T18:54:35.554Z,1.95
2022-12-18T18:57:19.883Z,2.12
2022-12-18T18:59:48.623Z,2.23
2022-12-18T19:02:17.914Z,2.33
2022-12-18T19:04:47.698Z,2.29
2022-12-18T19:07:29.458Z,2.48
2022-12-18T19:10:07.246Z,2.37
2022-12-18T19:12:53.881Z,2.26
2022-12-18T19:15:22.736Z,2.21
2022-12-18T19:17:50.856Z,2.06
2022-12-18T19:20:20.499Z,1.95
2022-12-18T19:22:55.299Z,2.06
2022-12-18T19:25:29.917Z,2.04
2022-12-18T19:28:21.524Z,1.98
2022-12-18T19:30:59.068Z,1.95
2022-12-18T19:33:44.862Z,1.94
2022-12-18T19:36:21.168Z,1.96
2022-12-18T19:38:51.434Z,1.93
2022-12-18T19:41:21.605Z,1.94
2022-12-18T19:43:50.772Z,1.96
2022-12-18T19:46:21.820Z,1.99
2022-12-18T19:48:51.180Z,1.91
2022-12-18T19:51:24.506Z,1.91
2022-12-18T19:53:58.496Z,1.86
2022-12-18T19:56:30.951Z,1.90
2022-12-18T19:58:59.437Z,1.93
2022-12-18T20:01:29.510Z,1.92
2022-12-18T20:03:58.943Z,1.98
2022-12-18T20:06:31.611Z,1.84
2022-12-18T20:09:03.609Z,1.99
2022-12-18T20:11:33.774Z,1.99
2022-12-18T20:14:06.661Z,2.03
2022-12-18T20:16:34.457Z,2.03
2022-12-18T20:19:03.091Z,2.10
2022-12-18T20:21:32.852Z,2.10
2022-12-18T20:24:01.913Z,2.14
2022-12-18T20:26:30.064Z,2.18
2022-12-18T20:28:58.119Z,2.18
2022-12-18T20:31:25.917Z,2.20
2022-12-18T20:33:59.623Z,2.29
2022-12-18T20:36:29.625Z,2.24
2022-12-18T20:39:01.776Z,2.23
2022-12-18T20:41:38.350Z,2.27
2022-12-18T20:44:21.481Z,2.36
2022-12-18T20:46:51.657Z,2.34
2022-12-18T20:49:19.613Z,2.38
2022-12-18T20:51:51.409Z,2.37
2022-12-18T20:54:21.766Z,2.33
2022-12-18T20:56:50.521Z,2.39
2022-12-18T20:59:19.555Z,2.29
2022-12-18T21:01:48.527Z,2.36
2022-12-18T21:04:18.377Z,2.42
2022-12-18T21:06:52.067Z,2.39
2022-12-18T21:09:23.730Z,2.37
2022-12-18T21:12:10.400Z,2.37
2022-12-18T21:14:43.912Z,2.36
2022-12-18T21:17:12.155Z,2.28
2022-12-18T21:19:40.157Z,2.45
2022-12-18T21:22:09.825Z,2.52
2022-12-18T21:24:38.942Z,2.51
2022-12-18T21:27:06.702Z,2.43
2022-12-18T21:29:34.973Z,2.48
2022-12-18T21:32:04.633Z,2.50
2022-12-18T21:34:33.307Z,2.53
2022-12-18T21:37:02.199Z,2.57
2022-12-18T21:39:30.733Z,2.58
2022-12-18T21:42:19.085Z,2.63
2022-12-18T21:44:49.167Z,2.64
2022-12-18T21:47:22.568Z,2.74
2022-12-18T21:49:52.765Z,2.71
2022-12-18T21:52:30.755Z,2.62
2022-12-18T21:55:08.021Z,2.59
2022-12-18T21:57:39.323Z,2.58
2022-12-18T22:00:18.859Z,2.51
2022-12-18T22:02:48.762Z,2.56
2022-12-18T22:05:36.400Z,2.57
2022-12-18T22:08:04.971Z,2.47
2022-12-18T22:10:33.074Z,2.43
2022-12-18T22:13:02.347Z,2.46
2022-12-18T22:15:30.084Z,2.42
2022-12-18T22:18:00.139Z,2.43
2022-12-18T22:20:29.738Z,2.38
2022-12-18T22:22:58.521Z,2.36
2022-12-18T22:25:26.347Z,2.35
2022-12-18T22:28:12.594Z,2.34
2022-12-18T22:30:41.698Z,2.34
2022-12-18T22:33:09.476Z,2.39
2022-12-18T22:35:37.382Z,2.34
2022-12-18T22:38:05.126Z,2.30
2022-12-18T22:40:33.202Z,2.37
2022-12-18T22:43:00.972Z,2.35
2022-12-18T22:45:28.765Z,2.36
2022-12-18T22:47:58.061Z,2.25
2022-12-18T22:50:26.046Z,2.27
2022-12-18T22:52:54.057Z,2.35
2022-12-18T22:55:21.984Z,2.34
2022-12-18T22:57:52.742Z,2.30
2022-12-18T23:00:23.907Z,2.39
2022-12-18T23:02:59.180Z,2.36
2022-12-18T23:05:31.290Z,2.37
2022-12-18T23:07:59.591Z,2.32
2022-12-18T23:10:28.373Z,2.21
2022-12-18T23:12:56.256Z,2.25
2022-12-18T23:15:28.406Z,2.27
2022-12-18T23:17:58.491Z,2.26
2022-12-18T23:20:28.156Z,2.26
2022-12-18T23:22:57.373Z,2.26
2022-12-18T23:25:25.040Z,2.23
2022-12-18T23:27:52.825Z,2.25
2022-12-18T23:30:20.689Z,2.29
2022-12-18T23:32:48.470Z,2.24
2022-12-18T23:35:17.225Z,2.28
2022-12-18T23:37:58.791Z,2.26
2022-12-18T23:40:29.963Z,2.30
2022-12-18T23:43:00.228Z,2.31
2022-12-18T23:45:28.290Z,2.31
2022-12-18T23:47:56.134Z,2.30
2022-12-18T23:50:29.026Z,2.28
2022-12-18T23:53:04.704Z,2.26
2022-12-18T23:55:39.830Z,2.38
2022-12-18T23:58:14.974Z,2.40
